Time;durP1;ratioP1;P1;durP2;ratioP2;P2;SDS_P1;SDS_P2;PMS_P1;PMS_P2;Temp;Humidity;BMP_temperature;BMP_pressure;BME280_temperature;BME280_humidity;BME280_pressure;Samples;Min_cycle;Max_cycle;Signal;HPM_P1;HPM_P2
2021/09/23 00:00:14;;;;;;;0.20;0.20;;;11.30;99.90;;;;;;5012549;28;20030;-75
2021/09/23 00:05:11;;;;;;;0.25;0.25;;;10.90;99.90;;;;;;5012298;28;20033;-74
2021/09/23 00:07:38;;;;;;;0.20;0.20;;;11.10;99.90;;;;;;5012376;28;20381;-74
2021/09/23 00:10:05;;;;;;;0.20;0.20;;;11.10;99.90;;;;;;5011224;28;20033;-74
2021/09/23 00:12:31;;;;;;;0.20;0.20;;;11.20;99.90;;;;;;5011188;28;20489;-74
2021/09/23 00:14:57;;;;;;;0.20;0.20;;;11.10;99.90;;;;;;5012277;28;20037;-74
2021/09/23 00:17:23;;;;;;;2.75;2.17;;;11.00;99.90;;;;;;5010967;28;20506;-75
2021/09/23 00:19:49;;;;;;;0.25;0.25;;;11.10;99.90;;;;;;5012253;28;20520;-75
2021/09/23 00:22:15;;;;;;;0.17;0.17;;;11.00;99.90;;;;;;5011080;28;20108;-75
2021/09/23 00:24:41;;;;;;;0.20;0.20;;;10.80;99.90;;;;;;5012157;28;20037;-74
2021/09/23 00:27:06;;;;;;;0.20;0.20;;;10.90;99.90;;;;;;5012207;28;20056;-74
2021/09/23 00:29:32;;;;;;;0.28;0.28;;;11.00;99.90;;;;;;5012133;28;20034;-75
2021/09/23 00:31:58;;;;;;;0.10;0.10;;;10.90;99.90;;;;;;5012090;28;20057;-74
2021/09/23 00:34:24;;;;;;;0.10;0.10;;;10.90;99.90;;;;;;5012148;28;20026;-75
2021/09/23 00:36:49;;;;;;;0.20;0.20;;;10.90;99.90;;;;;;4994405;28;20034;-74
2021/09/23 00:39:15;;;;;;;0.10;0.10;;;11.00;99.90;;;;;;5010758;28;20084;-74
2021/09/23 00:41:41;;;;;;;0.20;0.20;;;10.80;99.90;;;;;;5012117;28;20026;-74
2021/09/23 00:44:18;;;;;;;0.20;0.20;;;10.70;99.90;;;;;;5012111;28;20109;-75
2021/09/23 00:46:45;;;;;;;0.20;0.20;;;10.60;99.90;;;;;;5011874;28;20422;-74
2021/09/23 00:49:11;;;;;;;0.20;0.20;;;10.50;99.90;;;;;;5012015;28;20076;-75
2021/09/23 00:51:37;;;;;;;0.20;0.20;;;10.50;99.90;;;;;;5010757;28;20022;-75
2021/09/23 00:54:04;;;;;;;0.10;0.10;;;10.50;99.90;;;;;;5027177;28;20067;-77
2021/09/23 00:56:30;;;;;;;0.50;0.50;;;10.40;99.90;;;;;;5017013;28;20103;-77
2021/09/23 00:58:57;;;;;;;0.20;0.20;;;10.40;99.90;;;;;;5017276;28;20434;-77
2021/09/23 01:01:26;;;;;;;0.20;0.20;;;10.40;99.90;;;;;;5033000;28;20084;-77
2021/09/23 01:03:56;;;;;;;0.15;0.15;;;10.60;99.90;;;;;;5016609;28;20049;-76
2021/09/23 01:06:21;;;;;;;1.20;1.20;;;10.50;99.90;;;;;;5019996;28;20022;-77
2021/09/23 01:08:55;;;;;;;0.15;0.15;;;10.60;99.90;;;;;;5019905;28;20385;-77
2021/09/23 01:11:23;;;;;;;0.10;0.10;;;10.70;99.90;;;;;;5020169;28;20026;-77
2021/09/23 01:13:49;;;;;;;0.50;0.50;;;10.80;99.90;;;;;;5019842;28;20026;-77
2021/09/23 01:16:15;;;;;;;0.30;0.30;;;10.70;99.90;;;;;;5020598;28;20108;-77
2021/09/23 01:18:41;;;;;;;0.20;0.20;;;10.70;99.90;;;;;;5020538;28;20441;-77
2021/09/23 01:21:08;;;;;;;0.13;0.13;;;10.80;99.90;;;;;;5016403;28;20156;-75
2021/09/23 01:23:38;;;;;;;0.20;0.20;;;10.60;99.90;;;;;;5014189;28;20026;-74
2021/09/23 01:26:26;;;;;;;0.13;0.13;;;10.50;99.90;;;;;;5013883;28;20022;-74
2021/09/23 01:28:53;;;;;;;0.20;0.20;;;10.30;99.90;;;;;;5013788;28;20112;-75
2021/09/23 01:31:20;;;;;;;0.20;0.20;;;10.00;99.90;;;;;;5015466;28;20018;-77
2021/09/23 01:33:54;;;;;;;0.20;0.20;;;9.90;99.90;;;;;;5073300;23;20049;-93
2021/09/23 01:36:33;;;;;;;0.20;0.20;;;10.10;99.90;;;;;;5020549;28;20032;-94
2021/09/23 01:39:21;;;;;;;0.40;0.40;;;10.30;99.90;;;;;;5015864;28;20105;-94
2021/09/23 01:42:08;;;;;;;0.65;0.65;;;10.30;99.90;;;;;;5016198;28;20040;-94
2021/09/23 01:44:39;;;;;;;0.20;0.20;;;10.40;99.90;;;;;;4997419;28;20022;-93
2021/09/23 01:47:19;;;;;;;0.13;0.13;;;10.60;99.90;;;;;;4998509;28;20030;-93
2021/09/23 01:49:58;;;;;;;0.20;0.20;;;10.80;99.90;;;;;;4998892;28;20034;-93
2021/09/23 01:52:36;;;;;;;0.40;0.40;;;10.80;99.90;;;;;;4997455;28;20077;-93
2021/09/23 01:55:15;;;;;;;0.15;0.15;;;10.80;99.90;;;;;;5004740;28;20014;-94
2021/09/23 01:57:56;;;;;;;0.20;0.20;;;10.80;99.90;;;;;;5006817;28;20025;-94
2021/09/23 02:03:30;;;;;;;0.20;0.20;;;10.60;99.90;;;;;;5012629;28;20030;-94
2021/09/23 02:06:21;;;;;;;0.25;0.25;;;10.60;99.90;;;;;;4996411;28;20030;-94
2021/09/23 02:09:04;;;;;;;29.88;2.30;;;10.50;99.90;;;;;;4996076;28;20037;-94
2021/09/23 02:11:38;;;;;;;0.35;0.35;;;10.50;99.90;;;;;;4996690;28;20479;-94
2021/09/23 02:14:24;;;;;;;0.20;0.20;;;10.50;99.90;;;;;;5010089;28;20053;-93
2021/09/23 02:17:07;;;;;;;0.20;0.20;;;10.40;99.90;;;;;;4995781;28;20034;-94
2021/09/23 02:20:01;;;;;;;0.20;0.20;;;10.40;99.90;;;;;;5011346;28;20042;-94
2021/09/23 02:22:32;;;;;;;1.10;1.10;;;10.30;99.90;;;;;;4996828;28;20595;-94
2021/09/23 02:25:10;;;;;;;0.10;0.10;;;10.40;99.90;;;;;;4997151;28;20033;-93
2021/09/23 02:27:48;;;;;;;0.10;0.10;;;10.20;99.90;;;;;;4996075;28;20143;-93
2021/09/23 02:30:57;;;;;;;0.30;0.30;;;10.00;99.90;;;;;;5010267;28;20026;-93
2021/09/23 02:37:32;;;;;;;0.20;0.20;;;9.70;99.90;;;;;;4987572;28;20066;-94
2021/09/23 02:40:19;;;;;;;0.40;0.40;;;9.90;99.90;;;;;;4955232;28;20107;-94
2021/09/23 02:43:45;;;;;;;0.17;0.17;;;10.00;99.90;;;;;;5021330;28;20022;-93
2021/09/23 02:49:29;;;;;;;0.25;0.25;;;9.80;99.90;;;;;;5011172;28;20022;-93
2021/09/23 02:52:19;;;;;;;0.25;0.25;;;9.80;99.90;;;;;;4994937;28;20032;-94
2021/09/23 02:54:54;;;;;;;0.20;0.20;;;9.70;99.90;;;;;;4992878;28;20037;-93
2021/09/23 02:58:06;;;;;;;0.20;0.20;;;9.60;99.90;;;;;;4992652;28;20033;-93
2021/09/23 03:01:13;;;;;;;;;;;;;;;;;;;;;
2021/09/23 03:03:45;;;;;;;0.20;0.20;;;9.70;99.90;;;;;;4932475;28;20036;-94
2021/09/23 03:06:26;;;;;;;0.30;0.30;;;9.90;99.90;;;;;;5011948;28;20029;-93
2021/09/23 03:09:46;;;;;;;0.20;0.20;;;9.90;99.90;;;;;;5011415;28;20487;-94
2021/09/23 03:12:27;;;;;;;0.10;0.10;;;9.90;99.90;;;;;;5019028;28;20026;-93
2021/09/23 03:15:35;;;;;;;0.15;0.15;;;10.00;99.90;;;;;;4994973;28;20034;-94
2021/09/23 03:18:10;;;;;;;0.10;0.10;;;10.10;99.90;;;;;;4994198;28;20065;-94
2021/09/23 03:21:13;;;;;;;0.20;0.20;;;10.10;99.90;;;;;;5007658;28;20057;-93
2021/09/23 03:31:17;;;;;;;0.10;0.10;;;10.00;99.90;;;;;;5027918;28;20422;-93
2021/09/23 03:34:09;;;;;;;0.28;0.28;;;9.90;99.90;;;;;;4993171;28;20033;-94
2021/09/23 03:36:46;;;;;;;0.20;0.20;;;9.90;99.90;;;;;;4954224;28;20112;-94
2021/09/23 03:39:35;;;;;;;1.08;0.57;;;9.60;99.90;;;;;;4993254;28;20034;-93
2021/09/23 03:42:25;;;;;;;0.20;0.20;;;9.50;99.90;;;;;;5003547;28;20068;-94
2021/09/23 03:45:37;;;;;;;1.88;1.77;;;9.60;99.90;;;;;;4993901;28;20030;-93
2021/09/23 03:51:28;;;;;;;0.55;0.55;;;9.60;99.90;;;;;;5011707;28;20117;-77
2021/09/23 03:53:54;;;;;;;0.20;0.20;;;9.70;99.90;;;;;;5028155;28;20026;-77
2021/09/23 03:56:20;;;;;;;0.10;0.10;;;9.70;99.90;;;;;;5027595;28;20022;-77
2021/09/23 03:58:46;;;;;;;0.82;0.82;;;9.70;99.90;;;;;;5012821;28;20498;-77
2021/09/23 04:01:12;;;;;;;0.20;0.20;;;9.70;99.90;;;;;;5012772;28;20317;-77
2021/09/23 04:03:38;;;;;;;0.15;0.15;;;9.70;99.90;;;;;;5012788;28;20101;-77
2021/09/23 04:06:04;;;;;;;0.20;0.20;;;9.70;99.90;;;;;;5012747;28;20061;-77
2021/09/23 04:08:30;;;;;;;0.30;0.30;;;9.50;99.90;;;;;;5012760;28;20482;-77
2021/09/23 04:10:56;;;;;;;0.20;0.20;;;9.40;99.90;;;;;;5011492;28;20477;-78
2021/09/23 04:13:21;;;;;;;0.20;0.20;;;9.60;99.90;;;;;;5011435;28;20026;-77
2021/09/23 04:15:49;;;;;;;0.30;0.30;;;9.60;99.90;;;;;;5012533;28;20030;-78
2021/09/23 04:18:17;;;;;;;0.20;0.20;;;9.70;99.90;;;;;;5011243;28;20034;-77
2021/09/23 04:20:44;;;;;;;0.43;0.43;;;9.70;99.90;;;;;;5011457;28;20049;-78
2021/09/23 04:23:10;;;;;;;0.20;0.20;;;9.70;99.90;;;;;;5012619;28;20018;-77
2021/09/23 04:25:36;;;;;;;2.05;1.75;;;9.70;99.90;;;;;;5011234;28;20022;-77
2021/09/23 04:28:02;;;;;;;0.28;0.28;;;9.60;99.90;;;;;;5012462;28;20026;-77
2021/09/23 04:30:27;;;;;;;0.20;0.20;;;9.60;99.90;;;;;;5012589;28;20114;-77
2021/09/23 04:32:53;;;;;;;0.20;0.20;;;9.60;99.90;;;;;;5011477;28;20116;-77
2021/09/23 04:35:19;;;;;;;1.27;1.10;;;9.50;99.90;;;;;;5011457;28;20037;-77
2021/09/23 04:37:44;;;;;;;0.20;0.20;;;9.40;99.90;;;;;;5012375;28;20506;-78
2021/09/23 04:40:11;;;;;;;0.20;0.20;;;9.30;99.90;;;;;;5015127;28;20042;-76
2021/09/23 04:42:40;;;;;;;0.50;0.50;;;9.40;99.90;;;;;;5015149;28;20497;-77
2021/09/23 04:45:06;;;;;;;0.40;0.40;;;9.40;99.90;;;;;;5015249;28;20481;-77
2021/09/23 04:47:32;;;;;;;0.10;0.10;;;9.20;99.90;;;;;;5016441;28;20026;-77
2021/09/23 04:49:58;;;;;;;1.00;0.60;;;9.30;99.90;;;;;;5014984;28;20369;-77
2021/09/23 04:52:23;;;;;;;0.20;0.20;;;9.40;99.90;;;;;;5015503;28;20049;-77
2021/09/23 04:54:49;;;;;;;0.20;0.20;;;9.40;99.90;;;;;;5014938;28;20053;-77
2021/09/23 04:57:15;;;;;;;0.95;0.73;;;9.50;99.90;;;;;;5015888;28;20026;-77
2021/09/23 04:59:41;;;;;;;0.50;0.50;;;9.60;99.90;;;;;;5014801;28;20398;-77
2021/09/23 05:02:06;;;;;;;0.30;0.30;;;9.50;99.90;;;;;;5016065;28;20018;-78
2021/09/23 05:04:32;;;;;;;0.20;0.20;;;9.50;99.90;;;;;;5015942;28;20026;-77
2021/09/23 05:06:58;;;;;;;0.30;0.30;;;9.50;99.90;;;;;;5016033;28;20410;-77
2021/09/23 05:09:23;;;;;;;0.20;0.20;;;9.60;99.90;;;;;;5016064;28;20018;-77
2021/09/23 05:11:50;;;;;;;0.20;0.20;;;9.80;99.90;;;;;;5012291;28;20430;-77
2021/09/23 05:14:17;;;;;;;0.20;0.20;;;9.90;99.90;;;;;;5006927;28;20028;-77
2021/09/23 05:16:44;;;;;;;0.88;0.88;;;9.80;99.90;;;;;;5002117;28;20573;-77
2021/09/23 05:19:11;;;;;;;0.20;0.20;;;9.60;99.90;;;;;;4994772;28;20018;-76
2021/09/23 05:21:37;;;;;;;0.20;0.20;;;9.70;99.90;;;;;;4996138;28;20490;-76
2021/09/23 05:24:02;;;;;;;0.20;0.20;;;9.70;99.90;;;;;;4995149;28;20058;-76
2021/09/23 05:26:29;;;;;;;0.20;0.20;;;9.70;99.90;;;;;;4995892;28;20025;-77
2021/09/23 05:28:54;;;;;;;0.82;0.50;;;9.70;99.90;;;;;;4995631;28;20023;-77
2021/09/23 05:31:20;;;;;;;0.52;0.52;;;9.70;99.90;;;;;;5011056;28;20093;-77
2021/09/23 05:33:46;;;;;;;0.65;0.60;;;9.90;99.90;;;;;;5001845;28;20097;-76
2021/09/23 05:36:12;;;;;;;0.20;0.20;;;9.90;99.90;;;;;;4998453;28;20117;-77
2021/09/23 05:38:37;;;;;;;0.13;0.13;;;9.90;99.90;;;;;;4997867;28;20030;-78
2021/09/23 05:41:03;;;;;;;0.10;0.10;;;10.00;99.90;;;;;;4997273;28;20504;-77
2021/09/23 05:43:29;;;;;;;0.52;0.52;;;10.00;99.90;;;;;;4997111;28;20022;-78
2021/09/23 05:45:55;;;;;;;0.20;0.20;;;9.90;99.90;;;;;;4996666;28;20101;-78
2021/09/23 05:48:21;;;;;;;2.35;2.08;;;9.90;99.90;;;;;;4997056;28;20083;-77
2021/09/23 05:50:47;;;;;;;0.10;0.10;;;9.90;99.90;;;;;;4997160;28;20031;-77
2021/09/23 05:53:13;;;;;;;0.47;0.47;;;10.00;99.90;;;;;;4995312;28;20030;-78
2021/09/23 05:55:39;;;;;;;0.75;0.55;;;10.00;99.90;;;;;;5011873;28;20501;-78
2021/09/23 05:58:05;;;;;;;0.10;0.10;;;10.00;99.90;;;;;;4996670;28;20022;-78
2021/09/23 06:00:34;;;;;;;0.40;0.40;;;10.10;99.90;;;;;;4995160;28;20031;-78
2021/09/23 06:03:00;;;;;;;0.13;0.13;;;10.30;99.90;;;;;;4979226;28;20018;-77
2021/09/23 06:05:26;;;;;;;0.13;0.13;;;10.30;99.90;;;;;;5009377;28;20138;-78
2021/09/23 06:07:53;;;;;;;3.80;0.68;;;10.30;99.90;;;;;;4983412;28;20029;-77
2021/09/23 06:10:20;;;;;;;0.22;0.22;;;10.40;99.90;;;;;;5004689;28;20427;-78
2021/09/23 06:12:46;;;;;;;0.20;0.20;;;10.50;99.90;;;;;;5007810;28;20056;-77
2021/09/23 06:15:12;;;;;;;0.17;0.17;;;10.60;99.90;;;;;;5011654;28;20064;-78
2021/09/23 06:17:39;;;;;;;0.20;0.20;;;10.60;99.90;;;;;;5023509;28;20057;-78
2021/09/23 06:20:06;;;;;;;0.20;0.20;;;10.70;99.90;;;;;;5011960;28;20163;-78
2021/09/23 06:22:32;;;;;;;0.20;0.20;;;10.80;99.90;;;;;;5009094;28;20037;-78
2021/09/23 06:24:57;;;;;;;0.13;0.13;;;11.00;99.90;;;;;;5006980;28;20021;-77
2021/09/23 06:27:24;;;;;;;0.20;0.20;;;11.00;99.90;;;;;;5001137;28;20485;-77
2021/09/23 06:29:50;;;;;;;0.20;0.20;;;11.10;99.90;;;;;;5006421;28;20037;-78
2021/09/23 06:32:15;;;;;;;0.20;0.20;;;11.10;99.90;;;;;;5004960;28;20388;-77
2021/09/23 06:34:41;;;;;;;0.20;0.20;;;11.30;99.90;;;;;;5006692;28;20045;-78
2021/09/23 06:37:07;;;;;;;0.17;0.17;;;11.30;99.90;;;;;;5004750;28;20037;-78
2021/09/23 06:39:33;;;;;;;0.10;0.10;;;11.30;99.90;;;;;;5003324;28;20065;-77
2021/09/23 06:41:58;;;;;;;0.10;0.10;;;11.40;99.90;;;;;;5000285;28;20062;-78
2021/09/23 06:44:25;;;;;;;0.10;0.10;;;11.50;99.90;;;;;;4998711;28;20089;-78
2021/09/23 06:46:55;;;;;;;0.20;0.20;;;11.70;99.90;;;;;;5007273;28;20030;-78
2021/09/23 06:49:23;;;;;;;0.10;0.10;;;11.90;99.90;;;;;;5005691;28;20037;-78
2021/09/23 06:51:50;;;;;;;0.55;0.55;;;11.90;99.90;;;;;;5009972;28;20022;-79
2021/09/23 06:54:16;;;;;;;0.55;0.55;;;12.00;99.90;;;;;;5002402;28;20050;-77
2021/09/23 06:56:42;;;;;;;0.20;0.20;;;12.00;99.90;;;;;;4999119;28;20026;-79
2021/09/23 06:59:08;;;;;;;0.10;0.10;;;11.90;99.90;;;;;;4999680;28;20029;-76
2021/09/23 07:01:34;;;;;;;0.10;0.10;;;11.90;99.90;;;;;;5001742;28;20413;-77
2021/09/23 07:04:00;;;;;;;0.10;0.10;;;12.00;99.90;;;;;;5000464;28;20121;-77
2021/09/23 07:06:26;;;;;;;0.15;0.15;;;12.20;99.90;;;;;;4984476;28;20594;-77
2021/09/23 07:08:52;;;;;;;0.15;0.15;;;12.30;99.90;;;;;;5008750;28;20393;-77
2021/09/23 07:11:17;;;;;;;0.10;0.10;;;12.40;99.90;;;;;;4991157;28;20030;-76
2021/09/23 07:13:44;;;;;;;0.10;0.10;;;12.50;99.90;;;;;;5002831;28;20026;-77
2021/09/23 07:16:10;;;;;;;0.20;0.20;;;12.50;99.90;;;;;;5007218;28;20422;-77
2021/09/23 07:18:37;;;;;;;0.10;0.10;;;12.70;99.90;;;;;;5005445;28;20030;-74
2021/09/23 07:21:05;;;;;;;0.10;0.10;;;12.80;99.90;;;;;;5013004;28;20035;-74
2021/09/23 07:23:31;;;;;;;0.10;0.10;;;12.90;99.90;;;;;;5018507;28;20030;-77
2021/09/23 07:25:57;;;;;;;0.13;0.13;;;13.00;99.90;;;;;;5009637;28;20044;-78
2021/09/23 07:28:25;;;;;;;0.10;0.10;;;13.00;99.90;;;;;;5002224;28;20485;-77
2021/09/23 07:30:51;;;;;;;0.10;0.10;;;13.00;99.90;;;;;;5003877;28;20535;-77
2021/09/23 07:33:17;;;;;;;0.10;0.10;;;13.10;99.90;;;;;;5008759;28;20025;-77
2021/09/23 07:35:43;;;;;;;0.20;0.20;;;13.10;99.90;;;;;;5003344;28;20029;-77
2021/09/23 07:38:09;;;;;;;2.00;1.85;;;13.20;99.90;;;;;;5010862;28;20109;-77
2021/09/23 07:40:35;;;;;;;0.20;0.20;;;13.20;99.90;;;;;;4980196;28;20085;-77
2021/09/23 07:43:00;;;;;;;0.20;0.20;;;13.30;99.90;;;;;;4997489;28;20461;-77
2021/09/23 07:45:27;;;;;;;0.17;0.17;;;13.40;99.90;;;;;;4998578;28;20054;-77
2021/09/23 07:47:53;;;;;;;0.30;0.30;;;13.50;99.90;;;;;;4998739;28;20080;-77
2021/09/23 07:50:19;;;;;;;0.10;0.10;;;13.50;99.90;;;;;;4996196;28;20053;-75
2021/09/23 07:52:45;;;;;;;1.17;1.05;;;13.50;99.90;;;;;;5004925;28;20030;-75
2021/09/23 07:55:11;;;;;;;0.20;0.20;;;13.60;99.90;;;;;;5006162;28;20471;-76
2021/09/23 07:57:38;;;;;;;0.10;0.10;;;13.60;99.90;;;;;;5009929;28;20113;-76
2021/09/23 08:00:05;;;;;;;0.17;0.17;;;13.60;99.90;;;;;;5003993;28;20037;-76
2021/09/23 08:02:31;;;;;;;0.10;0.10;;;13.70;99.90;;;;;;5000435;28;20393;-76
2021/09/23 08:04:57;;;;;;;0.13;0.13;;;13.80;99.90;;;;;;5002371;28;20018;-78
2021/09/23 08:07:23;;;;;;;0.30;0.30;;;13.90;99.90;;;;;;5008551;28;20026;-77
2021/09/23 08:09:50;;;;;;;0.50;0.50;;;13.80;99.90;;;;;;4984023;28;20049;-78
2021/09/23 08:12:15;;;;;;;0.55;0.55;;;13.80;99.90;;;;;;5008759;28;20026;-78
2021/09/23 08:14:41;;;;;;;0.13;0.13;;;13.70;99.90;;;;;;5004308;28;20029;-78
2021/09/23 08:17:07;;;;;;;0.73;0.73;;;13.70;99.90;;;;;;5008592;28;20052;-78
2021/09/23 08:19:35;;;;;;;0.40;0.40;;;13.80;99.90;;;;;;5003476;28;20039;-78
2021/09/23 08:22:05;;;;;;;0.50;0.50;;;13.80;99.90;;;;;;5007736;28;20026;-77
2021/09/23 08:24:32;;;;;;;0.93;0.93;;;13.80;99.90;;;;;;5016804;28;20082;-78
2021/09/23 08:26:58;;;;;;;0.40;0.40;;;13.80;99.90;;;;;;5015742;28;20033;-78
2021/09/23 08:29:24;;;;;;;0.30;0.30;;;13.80;99.90;;;;;;4982280;28;20037;-77
2021/09/23 08:31:50;;;;;;;1.77;1.67;;;13.90;99.90;;;;;;4990961;28;20045;-77
2021/09/23 08:34:16;;;;;;;0.10;0.10;;;14.00;99.90;;;;;;5003744;28;20046;-78
2021/09/23 08:36:43;;;;;;;0.10;0.10;;;14.10;99.90;;;;;;5012109;28;20291;-77
2021/09/23 08:39:10;;;;;;;0.10;0.10;;;14.20;99.90;;;;;;5007412;28;20029;-77
2021/09/23 08:41:36;;;;;;;0.17;0.17;;;14.40;99.90;;;;;;5008038;28;20505;-77
2021/09/23 08:44:02;;;;;;;0.20;0.20;;;14.60;99.90;;;;;;5001911;28;20034;-77
2021/09/23 08:46:31;;;;;;;0.40;0.40;;;14.70;99.90;;;;;;5002919;28;20046;-78
2021/09/23 08:48:58;;;;;;;0.10;0.10;;;14.80;99.90;;;;;;5003581;28;20023;-78
2021/09/23 08:51:24;;;;;;;0.35;0.35;;;15.10;99.90;;;;;;5007250;28;20049;-79
2021/09/23 08:53:51;;;;;;;0.40;0.40;;;15.40;99.90;;;;;;5008986;28;20037;-79
2021/09/23 08:56:16;;;;;;;0.20;0.20;;;15.80;99.90;;;;;;5015698;28;20030;-79
2021/09/23 08:58:42;;;;;;;0.35;0.35;;;16.20;99.90;;;;;;5011884;28;20429;-79
2021/09/23 09:01:10;;;;;;;0.10;0.10;;;16.60;99.90;;;;;;5003270;28;20112;-80
2021/09/23 09:03:37;;;;;;;0.20;0.20;;;16.80;99.90;;;;;;5005151;28;20487;-80
2021/09/23 09:06:08;;;;;;;0.20;0.20;;;17.00;99.90;;;;;;5006040;28;20225;-80
2021/09/23 09:08:36;;;;;;;0.20;0.20;;;17.30;99.90;;;;;;5015262;28;20053;-80
2021/09/23 09:11:06;;;;;;;0.63;0.63;;;17.70;99.70;;;;;;5006225;28;20030;-79
2021/09/23 09:13:40;;;;;;;0.15;0.15;;;17.80;98.50;;;;;;5005568;28;20110;-79
2021/09/23 09:16:18;;;;;;;0.10;0.10;;;17.90;97.80;;;;;;5013239;28;20080;-79
2021/09/23 09:18:46;;;;;;;0.10;0.10;;;18.00;95.90;;;;;;5008718;28;20049;-78
2021/09/23 09:21:15;;;;;;;0.10;0.10;;;18.40;94.90;;;;;;4984549;28;20030;-79
2021/09/23 09:23:55;;;;;;;0.10;0.10;;;18.70;93.70;;;;;;5009245;28;20081;-79
2021/09/23 09:26:41;;;;;;;2.53;0.85;;;19.10;91.90;;;;;;5006931;28;20041;-78
2021/09/23 09:29:09;;;;;;;1.90;1.17;;;19.40;90.20;;;;;;5009927;28;20489;-79
2021/09/23 09:31:37;;;;;;;1.17;0.22;;;19.90;86.50;;;;;;5008412;28;20029;-79
2021/09/23 09:34:04;;;;;;;0.20;0.20;;;20.20;82.90;;;;;;5004056;28;20041;-77
2021/09/23 09:36:34;;;;;;;0.10;0.10;;;20.40;82.20;;;;;;4978528;28;20035;-77
2021/09/23 09:39:08;;;;;;;0.10;0.10;;;20.70;79.30;;;;;;5012209;28;20045;-76
2021/09/23 09:41:38;;;;;;;0.38;0.38;;;20.20;77.90;;;;;;5000654;28;20041;-77
2021/09/23 09:44:10;;;;;;;0.10;0.10;;;20.70;79.40;;;;;;5011889;28;20110;-77
2021/09/23 09:46:43;;;;;;;3.42;0.80;;;20.70;78.50;;;;;;5012931;28;20026;-75
2021/09/23 09:49:10;;;;;;;0.20;0.20;;;21.10;77.40;;;;;;4995469;28;20029;-77
2021/09/23 09:51:40;;;;;;;0.10;0.10;;;21.20;77.80;;;;;;5005463;28;20039;-77
2021/09/23 09:54:09;;;;;;;0.00;0.00;;;21.70;76.00;;;;;;5008398;28;20477;-77
2021/09/23 09:56:35;;;;;;;0.10;0.10;;;22.10;73.70;;;;;;4998664;28;20058;-78
2021/09/23 09:59:11;;;;;;;0.30;0.30;;;22.50;70.40;;;;;;5011839;28;20026;-77
2021/09/23 10:01:37;;;;;;;0.55;0.43;;;22.50;68.00;;;;;;4997410;28;20018;-76
2021/09/23 10:04:04;;;;;;;0.52;0.52;;;22.60;68.10;;;;;;5003071;28;20202;-77
2021/09/23 10:06:31;;;;;;;0.20;0.20;;;22.60;64.40;;;;;;5000203;28;20429;-77
2021/09/23 10:08:57;;;;;;;0.00;0.00;;;22.00;66.60;;;;;;5004027;28;20030;-77
2021/09/23 10:11:24;;;;;;;0.10;0.10;;;22.30;67.80;;;;;;4987660;28;20038;-77
2021/09/23 10:13:51;;;;;;;0.03;0.03;;;22.70;65.50;;;;;;5009461;28;20054;-77
2021/09/23 10:16:18;;;;;;;0.10;0.10;;;23.20;64.00;;;;;;5006371;28;20022;-76
2021/09/23 10:18:44;;;;;;;0.52;0.52;;;23.50;62.50;;;;;;5007553;28;20030;-77
2021/09/23 10:21:10;;;;;;;0.25;0.20;;;24.00;60.90;;;;;;4992633;28;20113;-76
2021/09/23 10:23:40;;;;;;;0.52;0.17;;;24.40;58.80;;;;;;5012046;28;20117;-77
2021/09/23 10:26:08;;;;;;;0.03;0.03;;;24.70;57.60;;;;;;4996349;28;20039;-77
2021/09/23 10:28:36;;;;;;;0.10;0.10;;;24.90;56.60;;;;;;5014558;28;20017;-77
2021/09/23 10:31:09;;;;;;;0.30;0.30;;;25.30;55.30;;;;;;4998365;28;20038;-77
2021/09/23 10:33:37;;;;;;;0.10;0.10;;;25.40;55.00;;;;;;4998485;28;20067;-78
2021/09/23 10:36:04;;;;;;;0.30;0.30;;;25.40;54.60;;;;;;4999155;28;20033;-77
2021/09/23 10:38:30;;;;;;;0.03;0.03;;;25.30;55.90;;;;;;4989177;28;20050;-76
2021/09/23 10:40:56;;;;;;;0.00;0.00;;;25.50;55.90;;;;;;4998619;28;20026;-76
2021/09/23 10:43:21;;;;;;;0.03;0.03;;;25.50;55.60;;;;;;4998231;28;20080;-76
2021/09/23 10:45:49;;;;;;;0.50;0.45;;;25.80;55.90;;;;;;5004942;28;20025;-76
2021/09/23 10:48:14;;;;;;;0.25;0.25;;;25.60;54.30;;;;;;5005585;28;20497;-77
2021/09/23 10:50:41;;;;;;;0.00;0.00;;;25.80;54.90;;;;;;5011707;28;20065;-76
2021/09/23 10:53:09;;;;;;;0.70;0.20;;;26.00;55.10;;;;;;5008135;28;20026;-77
2021/09/23 10:55:37;;;;;;;0.15;0.15;;;26.00;54.10;;;;;;5002748;28;20142;-77
2021/09/23 10:58:05;;;;;;;0.00;0.00;;;26.50;53.60;;;;;;4998571;28;20406;-77
2021/09/23 11:00:33;;;;;;;0.10;0.10;;;26.70;51.60;;;;;;5009998;28;20031;-77
2021/09/23 11:03:07;;;;;;;0.28;0.28;;;26.80;51.70;;;;;;5003724;28;20479;-76
2021/09/23 11:05:33;;;;;;;0.55;0.20;;;26.90;51.60;;;;;;4998267;28;20024;-76
2021/09/23 11:08:01;;;;;;;6.82;2.55;;;26.90;50.70;;;;;;4984294;28;20033;-77
2021/09/23 11:10:27;;;;;;;0.03;0.03;;;26.90;51.20;;;;;;5002227;28;20026;-76
2021/09/23 11:12:58;;;;;;;0.10;0.10;;;27.20;51.70;;;;;;4995766;28;20034;-77
2021/09/23 11:15:27;;;;;;;0.10;0.10;;;27.10;51.30;;;;;;5014731;28;20078;-76
2021/09/23 11:17:56;;;;;;;0.10;0.03;;;27.00;52.50;;;;;;5011663;28;20061;-77
2021/09/23 11:20:24;;;;;;;0.00;0.00;;;27.00;52.80;;;;;;5000063;28;20104;-76
2021/09/23 11:22:55;;;;;;;0.85;0.30;;;27.30;52.80;;;;;;5000718;28;20486;-76
2021/09/23 11:25:22;;;;;;;;;;;27.40;52.50;;;;;;5013086;28;20021;-77
2021/09/23 11:27:49;;;;;;;0.10;0.10;;;27.10;52.10;;;;;;5001599;28;19920;-76
2021/09/23 11:30:26;;;;;;;0.20;0.20;;;27.20;52.80;;;;;;5003638;28;20485;-78
2021/09/23 11:32:58;;;;;;;0.35;0.25;;;27.50;52.90;;;;;;4988366;28;20029;-76
2021/09/23 11:35:30;;;;;;;0.57;0.40;;;27.50;51.00;;;;;;5009105;28;20509;-77
2021/09/23 11:37:58;;;;;;;0.45;0.35;;;27.20;49.70;;;;;;4994657;28;21136;-77
2021/09/23 11:40:36;;;;;;;0.90;0.28;;;27.30;49.00;;;;;;5002147;28;20029;-77
2021/09/23 11:43:04;;;;;;;0.15;0.15;;;27.70;47.90;;;;;;5002147;28;20026;-77
2021/09/23 11:45:33;;;;;;;0.10;0.10;;;27.70;47.40;;;;;;5012827;28;20029;-77
2021/09/23 11:48:08;;;;;;;0.00;0.00;;;27.60;48.00;;;;;;4996381;28;20031;-76
2021/09/23 11:51:09;;;;;;;0.25;0.25;;;27.70;47.10;;;;;;5003305;28;20041;-77
2021/09/23 11:53:37;;;;;;;0.05;0.05;;;27.60;47.10;;;;;;4997217;28;20054;-77
2021/09/23 11:56:21;;;;;;;0.00;0.00;;;28.10;48.00;;;;;;4998357;28;20046;-77
2021/09/23 11:58:49;;;;;;;0.43;0.43;;;28.30;48.30;;;;;;5007388;28;20033;-79
2021/09/23 12:01:19;;;;;;;0.30;0.30;;;27.30;47.90;;;;;;5014743;28;20053;-75
2021/09/23 12:03:46;;;;;;;0.00;0.00;;;27.50;48.60;;;;;;4995173;28;20225;-74
2021/09/23 12:06:17;;;;;;;0.13;0.10;;;27.80;46.40;;;;;;5006949;28;20121;-76
2021/09/23 12:08:43;;;;;;;0.00;0.00;;;27.30;46.40;;;;;;5006349;28;20030;-76
2021/09/23 12:11:11;;;;;;;0.00;0.00;;;27.00;47.10;;;;;;5005646;28;20034;-76
2021/09/23 12:13:37;;;;;;;0.00;0.00;;;27.00;47.90;;;;;;5003407;28;20121;-76
2021/09/23 12:16:04;;;;;;;0.00;0.00;;;26.70;49.00;;;;;;4996472;28;20105;-76
2021/09/23 12:18:31;;;;;;;0.20;0.20;;;27.00;49.40;;;;;;5000654;28;20129;-76
2021/09/23 12:21:13;;;;;;;0.45;0.45;;;27.20;48.90;;;;;;5004001;28;20026;-75
2021/09/23 12:23:44;;;;;;;0.32;0.28;;;27.30;48.30;;;;;;4998551;28;20085;-75
2021/09/23 12:26:11;;;;;;;0.73;0.47;;;27.00;48.40;;;;;;5006298;28;20102;-76
2021/09/23 12:28:45;;;;;;;0.50;0.50;;;26.70;49.50;;;;;;4996861;28;20109;-76
2021/09/23 12:31:12;;;;;;;0.38;0.38;;;26.30;49.80;;;;;;5009512;28;20034;-76
2021/09/23 12:33:52;;;;;;;0.00;0.00;;;25.60;51.40;;;;;;5001639;28;20080;-75
2021/09/23 12:36:19;;;;;;;0.00;0.00;;;25.50;52.20;;;;;;5007325;28;20025;-75
2021/09/23 12:38:46;;;;;;;0.00;0.00;;;25.60;52.50;;;;;;4994542;28;20182;-75
2021/09/23 12:41:20;;;;;;;1.25;0.43;;;25.50;52.10;;;;;;5010715;28;20045;-76
2021/09/23 12:43:49;;;;;;;0.00;0.00;;;25.40;51.20;;;;;;5002007;28;20420;-75
2021/09/23 12:46:16;;;;;;;0.00;0.00;;;25.20;51.40;;;;;;5005246;28;20101;-76
2021/09/23 12:48:48;;;;;;;0.20;0.20;;;25.10;52.20;;;;;;4998223;28;20019;-75
2021/09/23 12:51:33;;;;;;;0.10;0.10;;;24.90;52.60;;;;;;4998131;28;20117;-75
2021/09/23 12:54:14;;;;;;;0.00;0.00;;;24.90;52.60;;;;;;4995250;28;20029;-75
2021/09/23 12:56:40;;;;;;;0.05;0.05;;;24.80;53.00;;;;;;5005183;28;20030;-76
2021/09/23 12:59:19;;;;;;;0.17;0.17;;;24.60;53.80;;;;;;5002879;28;20032;-76
2021/09/23 13:01:46;;;;;;;0.17;0.17;;;24.50;53.70;;;;;;5014993;28;20036;-76
2021/09/23 13:04:24;;;;;;;1.20;0.60;;;24.50;54.90;;;;;;5005472;28;20072;-76
2021/09/23 13:06:51;;;;;;;0.05;0.05;;;24.60;53.30;;;;;;5015328;28;20517;-76
2021/09/23 13:09:17;;;;;;;0.00;0.00;;;24.60;52.90;;;;;;5008661;28;20018;-75
2021/09/23 13:11:44;;;;;;;0.10;0.10;;;24.40;52.30;;;;;;5008445;28;20045;-75
2021/09/23 13:14:24;;;;;;;0.95;0.95;;;24.30;51.70;;;;;;5005186;28;20482;-73
2021/09/23 13:16:52;;;;;;;1.17;0.85;;;24.40;53.70;;;;;;5007891;28;20058;-76
2021/09/23 13:19:19;;;;;;;0.13;0.13;;;24.30;52.70;;;;;;4982608;28;20390;-76
2021/09/23 13:21:45;;;;;;;0.20;0.20;;;24.20;52.90;;;;;;5012416;28;20026;-76
2021/09/23 13:24:12;;;;;;;0.10;0.10;;;24.00;52.40;;;;;;5009721;28;20049;-75
2021/09/23 13:26:43;;;;;;;0.95;0.70;;;23.90;53.70;;;;;;5011302;28;20448;-75
2021/09/23 13:29:10;;;;;;;0.20;0.20;;;23.70;53.50;;;;;;5003965;28;20029;-76